Time;durP1;ratioP1;P1;durP2;ratioP2;P2;SDS_P1;SDS_P2;PMS_P1;PMS_P2;Temp;Humidity;BMP_temperature;BMP_pressure;BME280_temperature;BME280_humidity;BME280_pressure;Samples;Min_cycle;Max_cycle;Signal;HPM_P1;HPM_P2
2022/02/17 00:01:05;;;;;;;21.15;3.85;;;9.90;99.90;;;;;;5036553;28;20044;-66
2022/02/17 00:03:30;;;;;;;18.17;3.28;;;9.80;99.90;;;;;;5040234;28;20042;-66
2022/02/17 00:05:56;;;;;;;15.73;2.83;;;9.80;99.90;;;;;;5034982;28;20075;-66
2022/02/17 00:08:23;;;;;;;12.27;2.50;;;9.80;99.90;;;;;;5040414;28;20086;-66
2022/02/17 00:10:48;;;;;;;16.48;3.15;;;9.70;99.90;;;;;;5040595;28;20366;-66
2022/02/17 00:13:14;;;;;;;14.48;2.90;;;9.80;99.90;;;;;;5040308;28;20071;-66
2022/02/17 00:15:40;;;;;;;15.15;2.78;;;9.70;99.90;;;;;;5038976;28;20416;-66
2022/02/17 00:18:12;;;;;;;12.35;2.13;;;9.70;99.90;;;;;;5041644;28;20481;-66
2022/02/17 00:20:38;;;;;;;13.48;2.65;;;9.70;99.90;;;;;;5040280;28;20053;-66
2022/02/17 00:23:04;;;;;;;14.82;2.60;;;9.80;99.90;;;;;;5038507;28;20083;-66
2022/02/17 00:25:30;;;;;;;13.45;2.50;;;9.90;99.90;;;;;;5041190;28;20044;-66
2022/02/17 00:27:55;;;;;;;15.65;3.97;;;9.80;99.90;;;;;;5041183;28;20090;-66
2022/02/17 00:30:21;;;;;;;15.93;2.92;;;9.90;99.90;;;;;;5038284;28;20214;-67
2022/02/17 00:32:47;;;;;;;15.70;3.58;;;9.90;99.90;;;;;;5037110;28;20063;-66
2022/02/17 00:35:12;;;;;;;15.43;2.88;;;9.90;99.90;;;;;;5041635;28;20068;-66
2022/02/17 00:37:39;;;;;;;14.60;2.92;;;9.90;99.90;;;;;;5038443;28;20049;-66
2022/02/17 00:40:05;;;;;;;14.13;3.10;;;10.00;99.90;;;;;;5042509;28;20334;-66
2022/02/17 00:42:31;;;;;;;15.75;3.25;;;9.90;99.90;;;;;;5039421;28;20124;-67
2022/02/17 00:44:57;;;;;;;15.90;3.70;;;9.90;99.90;;;;;;5039777;28;20120;-66
2022/02/17 00:47:23;;;;;;;19.15;3.45;;;9.80;99.90;;;;;;5037923;28;20047;-66
2022/02/17 00:49:49;;;;;;;16.88;2.95;;;9.80;99.90;;;;;;5040905;28;20036;-66
2022/02/17 00:52:15;;;;;;;17.85;2.83;;;9.80;99.90;;;;;;5034949;28;20497;-66
2022/02/17 00:54:41;;;;;;;19.20;3.30;;;9.70;99.90;;;;;;5039858;28;20063;-66
2022/02/17 00:57:07;;;;;;;13.57;3.63;;;9.70;99.90;;;;;;5040940;28;20427;-67
2022/02/17 00:59:32;;;;;;;23.27;4.15;;;9.70;99.90;;;;;;5037759;28;20041;-66
2022/02/17 01:01:58;;;;;;;16.63;3.25;;;9.70;99.90;;;;;;5038713;28;20128;-67
2022/02/17 01:04:24;;;;;;;16.85;3.45;;;9.80;99.90;;;;;;5016392;28;20493;-67
2022/02/17 01:06:50;;;;;;;17.52;3.47;;;9.80;99.90;;;;;;5042158;28;20029;-67
2022/02/17 01:09:16;;;;;;;22.90;4.18;;;9.90;99.90;;;;;;5043008;28;20231;-67
2022/02/17 01:11:43;;;;;;;19.67;3.50;;;9.80;99.90;;;;;;5046765;28;20132;-67
2022/02/17 01:14:09;;;;;;;20.65;3.15;;;9.80;99.90;;;;;;5043704;28;20040;-67
2022/02/17 01:16:36;;;;;;;19.45;3.72;;;9.90;99.90;;;;;;5039970;28;20057;-67
2022/02/17 01:19:03;;;;;;;20.13;4.90;;;9.90;99.90;;;;;;5043153;28;20041;-67
2022/02/17 01:21:29;;;;;;;18.33;3.22;;;9.80;99.90;;;;;;5040237;28;20055;-67
2022/02/17 01:23:55;;;;;;;14.20;2.63;;;9.80;99.90;;;;;;5041983;28;20120;-67
2022/02/17 01:26:21;;;;;;;17.65;3.22;;;9.70;99.90;;;;;;5045469;28;20111;-67
2022/02/17 01:28:47;;;;;;;17.35;3.35;;;9.60;99.90;;;;;;5039747;28;20041;-66
2022/02/17 01:31:13;;;;;;;11.90;2.17;;;9.50;99.90;;;;;;5041099;28;20633;-66
2022/02/17 01:33:38;;;;;;;14.48;2.35;;;9.50;99.90;;;;;;5043949;28;20519;-66
2022/02/17 01:36:08;;;;;;;16.10;2.63;;;9.50;99.90;;;;;;5041641;28;20037;-67
2022/02/17 01:38:35;;;;;;;13.02;3.10;;;9.50;99.90;;;;;;5041444;28;20041;-67
2022/02/17 01:41:02;;;;;;;14.50;2.35;;;9.50;99.90;;;;;;5045579;28;20099;-67
2022/02/17 01:43:28;;;;;;;16.60;2.50;;;9.40;99.90;;;;;;5041336;28;20102;-66
2022/02/17 01:45:54;;;;;;;16.83;2.80;;;9.40;99.90;;;;;;5040410;28;20045;-66
2022/02/17 01:48:20;;;;;;;22.10;3.75;;;9.50;99.90;;;;;;5043724;28;20499;-67
2022/02/17 01:50:45;;;;;;;15.77;2.50;;;9.50;99.90;;;;;;5043116;28;20067;-67
2022/02/17 01:53:12;;;;;;;11.90;2.55;;;9.40;99.90;;;;;;5039928;28;20079;-67
2022/02/17 01:55:40;;;;;;;14.32;2.90;;;9.40;99.90;;;;;;5042795;28;20049;-66
2022/02/17 01:58:06;;;;;;;15.68;2.60;;;9.40;99.90;;;;;;5045429;28;20033;-67
2022/02/17 02:00:33;;;;;;;15.43;3.00;;;9.30;99.90;;;;;;5041242;28;20057;-66
2022/02/17 02:02:58;;;;;;;16.60;2.72;;;9.30;99.90;;;;;;5041856;28;20045;-66
2022/02/17 02:05:24;;;;;;;17.98;2.90;;;9.30;99.90;;;;;;5044992;28;20095;-67
2022/02/17 02:07:50;;;;;;;15.40;3.03;;;9.20;99.90;;;;;;5039850;28;20045;-67
2022/02/17 02:10:16;;;;;;;15.77;3.00;;;9.20;99.90;;;;;;5039694;28;20078;-67
2022/02/17 02:12:42;;;;;;;15.10;2.85;;;9.20;99.90;;;;;;5043645;28;20041;-67
2022/02/17 02:15:08;;;;;;;21.58;3.70;;;9.20;99.90;;;;;;5042224;28;20577;-67
2022/02/17 02:17:34;;;;;;;16.80;3.67;;;9.20;99.90;;;;;;5038406;28;20455;-67
2022/02/17 02:20:06;;;;;;;16.65;3.45;;;9.20;99.90;;;;;;5041492;28;20041;-67
2022/02/17 02:22:32;;;;;;;22.45;3.45;;;9.10;99.90;;;;;;5040837;28;20064;-66
2022/02/17 02:24:59;;;;;;;19.20;4.00;;;9.10;99.90;;;;;;5039296;28;20060;-66
2022/02/17 02:27:27;;;;;;;19.73;3.28;;;9.10;99.90;;;;;;5042961;28;20123;-66
2022/02/17 02:29:53;;;;;;;22.02;3.83;;;9.10;99.90;;;;;;5042335;28;20045;-66
2022/02/17 02:32:19;;;;;;;13.95;2.85;;;9.00;99.90;;;;;;5038648;28;20075;-66
2022/02/17 02:34:45;;;;;;;19.40;3.35;;;9.00;99.90;;;;;;5040305;28;20083;-67
2022/02/17 02:37:10;;;;;;;17.23;3.60;;;9.00;99.90;;;;;;5037827;28;20053;-67
2022/02/17 02:39:36;;;;;;;17.58;3.83;;;9.00;99.90;;;;;;5037985;28;20045;-67
2022/02/17 02:42:04;;;;;;;23.27;4.32;;;9.00;99.90;;;;;;5041192;28;20532;-67
2022/02/17 02:44:30;;;;;;;20.17;3.35;;;8.90;99.90;;;;;;5025758;28;20158;-67
2022/02/17 02:46:56;;;;;;;21.92;3.97;;;8.90;99.90;;;;;;5037771;28;20732;-67
2022/02/17 02:49:22;;;;;;;17.90;3.10;;;8.90;99.90;;;;;;5042499;28;20049;-67
2022/02/17 02:51:48;;;;;;;17.60;3.80;;;8.80;99.90;;;;;;5044450;28;20045;-67
2022/02/17 02:54:13;;;;;;;17.40;3.58;;;8.80;99.90;;;;;;5040833;28;20045;-66
2022/02/17 02:56:39;;;;;;;18.02;3.75;;;8.70;99.90;;;;;;5041007;28;20084;-67
2022/02/17 02:59:05;;;;;;;24.98;3.88;;;8.80;99.90;;;;;;5042285;28;20056;-66
2022/02/17 03:01:31;;;;;;;20.33;4.00;;;8.70;99.90;;;;;;5036367;28;20200;-67
2022/02/17 03:04:00;;;;;;;20.42;3.63;;;8.70;99.90;;;;;;5039574;28;20040;-67
2022/02/17 03:06:29;;;;;;;25.13;4.68;;;8.70;99.90;;;;;;5043174;28;20037;-67
2022/02/17 03:08:55;;;;;;;24.73;5.07;;;8.70;99.90;;;;;;5036293;28;20076;-67
2022/02/17 03:11:20;;;;;;;27.55;5.22;;;8.70;99.90;;;;;;5041397;28;20523;-67
2022/02/17 03:13:46;;;;;;;18.40;3.88;;;8.70;99.90;;;;;;5043045;28;20036;-66
2022/02/17 03:16:12;;;;;;;23.10;3.15;;;8.70;99.90;;;;;;5039643;28;20048;-67
2022/02/17 03:18:38;;;;;;;23.30;4.60;;;8.60;99.90;;;;;;5040121;28;20483;-67
2022/02/17 03:21:03;;;;;;;23.27;4.72;;;8.60;99.90;;;;;;5044154;28;20045;-67
2022/02/17 03:23:29;;;;;;;24.30;4.68;;;8.70;99.90;;;;;;5036580;28;20068;-67
2022/02/17 03:25:57;;;;;;;21.38;3.70;;;8.70;99.90;;;;;;5041154;28;20041;-67
2022/02/17 03:28:22;;;;;;;19.10;3.83;;;8.70;99.90;;;;;;5041569;28;20047;-67
2022/02/17 03:30:48;;;;;;;18.30;3.67;;;8.70;99.90;;;;;;5021455;28;20430;-67
2022/02/17 03:33:14;;;;;;;20.25;4.55;;;8.70;99.90;;;;;;5037153;28;20482;-67
2022/02/17 03:35:40;;;;;;;19.20;3.97;;;8.70;99.90;;;;;;5040753;28;20047;-67
2022/02/17 03:38:06;;;;;;;16.05;3.83;;;8.70;99.90;;;;;;5039574;28;20076;-66
2022/02/17 03:40:31;;;;;;;13.43;2.78;;;8.70;99.90;;;;;;5039606;28;20094;-67
2022/02/17 03:42:57;;;;;;;19.27;4.00;;;8.70;99.90;;;;;;5042894;28;20045;-66
2022/02/17 03:45:23;;;;;;;17.42;3.25;;;8.70;99.90;;;;;;5038941;28;20481;-67
2022/02/17 03:47:48;;;;;;;20.20;4.03;;;8.80;99.90;;;;;;5038173;28;20110;-67
2022/02/17 03:50:15;;;;;;;18.95;4.57;;;8.70;99.90;;;;;;5042161;28;20398;-67
2022/02/17 03:52:41;;;;;;;18.55;2.92;;;8.70;99.90;;;;;;5021084;28;20041;-66
2022/02/17 03:55:08;;;;;;;21.13;3.90;;;8.80;99.90;;;;;;5037472;28;20401;-66
2022/02/17 03:57:34;;;;;;;22.05;4.30;;;8.80;99.90;;;;;;5042801;28;20048;-66
2022/02/17 04:00:01;;;;;;;23.80;3.92;;;8.70;99.90;;;;;;5040133;28;20045;-66
2022/02/17 04:02:27;;;;;;;16.05;2.78;;;8.70;99.90;;;;;;5038689;28;20044;-67
2022/02/17 04:04:53;;;;;;;24.13;3.88;;;8.70;99.90;;;;;;5038908;28;20048;-67
2022/02/17 04:07:18;;;;;;;14.40;2.97;;;8.60;99.90;;;;;;5042615;28;20136;-67
2022/02/17 04:09:44;;;;;;;16.75;2.95;;;8.60;99.90;;;;;;5038556;28;20040;-67
2022/02/17 04:12:10;;;;;;;15.10;2.88;;;8.60;99.90;;;;;;5041131;28;20418;-67
2022/02/17 04:14:35;;;;;;;21.15;3.83;;;8.50;99.90;;;;;;5040035;28;20045;-67
2022/02/17 04:17:01;;;;;;;20.42;3.35;;;8.50;99.90;;;;;;5038609;28;20412;-67
2022/02/17 04:19:30;;;;;;;18.10;3.90;;;8.40;99.90;;;;;;5041902;28;20041;-68
2022/02/17 04:21:56;;;;;;;15.75;3.20;;;8.40;99.90;;;;;;5039395;28;20090;-67
2022/02/17 04:24:21;;;;;;;12.55;3.05;;;8.40;99.80;;;;;;5040646;28;20029;-67
2022/02/17 04:26:47;;;;;;;14.88;3.13;;;8.40;99.90;;;;;;5041375;28;20538;-67
2022/02/17 04:29:13;;;;;;;17.33;3.38;;;8.40;99.60;;;;;;5037479;28;20514;-67
2022/02/17 04:31:39;;;;;;;19.05;3.60;;;8.40;99.70;;;;;;5037975;28;20120;-67
2022/02/17 04:34:04;;;;;;;16.20;2.78;;;8.40;99.60;;;;;;5039067;28;20041;-67
2022/02/17 04:36:30;;;;;;;14.65;2.80;;;8.40;99.60;;;;;;5040238;28;20146;-67
2022/02/17 04:38:56;;;;;;;23.00;3.22;;;8.40;99.20;;;;;;5038560;28;20409;-67
2022/02/17 04:44:07;;;;;;;13.73;2.70;;;8.30;99.90;;;;;;5045221;28;20665;-68
2022/02/17 04:46:32;;;;;;;15.18;3.65;;;8.20;99.80;;;;;;5040524;28;20128;-67
2022/02/17 04:48:58;;;;;;;19.92;3.60;;;8.30;99.90;;;;;;5042796;28;20127;-67
2022/02/17 04:51:24;;;;;;;15.63;3.13;;;8.20;99.90;;;;;;5044851;28;20049;-67
2022/02/17 04:53:51;;;;;;;18.58;3.15;;;8.20;99.90;;;;;;5042607;28;20520;-68
2022/02/17 04:56:16;;;;;;;15.43;3.05;;;8.20;99.90;;;;;;5042193;28;20106;-67
2022/02/17 04:58:42;;;;;;;11.07;2.83;;;8.20;99.90;;;;;;5041913;28;20044;-67
2022/02/17 05:01:08;;;;;;;19.02;4.13;;;8.10;99.90;;;;;;5039136;28;20053;-67
2022/02/17 05:03:33;;;;;;;15.25;2.72;;;8.10;99.90;;;;;;5043895;28;20033;-67
2022/02/17 05:05:59;;;;;;;17.85;3.38;;;8.10;99.90;;;;;;5044041;28;20040;-67
2022/02/17 05:08:26;;;;;;;13.15;3.00;;;8.10;99.90;;;;;;5038181;28;20041;-67
2022/02/17 05:10:51;;;;;;;12.57;2.83;;;8.10;99.90;;;;;;5042955;28;20684;-67
2022/02/17 05:13:17;;;;;;;15.07;2.80;;;8.10;99.90;;;;;;5042703;28;20045;-67
2022/02/17 05:15:44;;;;;;;19.83;3.08;;;8.10;99.90;;;;;;5039548;28;20500;-67
2022/02/17 05:18:10;;;;;;;17.48;3.15;;;8.10;99.60;;;;;;5043043;28;20090;-68
2022/02/17 05:20:36;;;;;;;14.65;2.47;;;8.10;99.50;;;;;;5040772;28;20589;-66
2022/02/17 05:23:02;;;;;;;16.95;2.70;;;8.10;99.50;;;;;;5042691;28;20265;-67
2022/02/17 05:25:28;;;;;;;19.17;2.90;;;8.10;99.40;;;;;;5040541;28;20494;-68
2022/02/17 05:27:54;;;;;;;15.95;2.53;;;8.00;99.50;;;;;;5057591;28;20469;-67
2022/02/17 05:30:20;;;;;;;15.35;2.50;;;8.00;99.40;;;;;;5039750;28;20053;-67
2022/02/17 05:32:46;;;;;;;13.05;3.08;;;8.00;99.60;;;;;;5044065;28;20055;-68
2022/02/17 05:35:12;;;;;;;20.45;3.05;;;8.00;99.80;;;;;;5039770;28;20132;-68
2022/02/17 05:37:38;;;;;;;17.90;3.10;;;8.00;99.60;;;;;;5041787;28;20041;-67
2022/02/17 05:40:07;;;;;;;16.88;3.33;;;7.90;99.50;;;;;;5039538;28;20485;-67
2022/02/17 05:42:33;;;;;;;16.65;3.15;;;7.90;99.80;;;;;;5039735;28;20060;-67
2022/02/17 05:44:58;;;;;;;10.43;1.80;;;7.90;99.30;;;;;;5037778;28;20053;-67
2022/02/17 05:47:24;;;;;;;14.18;2.88;;;7.90;99.70;;;;;;5045416;28;20094;-68
2022/02/17 05:49:50;;;;;;;21.05;3.40;;;7.90;99.60;;;;;;5042775;28;20311;-68
2022/02/17 05:52:15;;;;;;;21.33;3.58;;;7.90;99.80;;;;;;5040225;28;20422;-68
2022/02/17 05:54:41;;;;;;;16.80;3.15;;;7.90;99.90;;;;;;5043038;28;20194;-67
2022/02/17 05:57:07;;;;;;;18.85;2.95;;;7.80;99.90;;;;;;5040785;28;20078;-68
2022/02/17 05:59:33;;;;;;;14.85;3.20;;;7.80;99.90;;;;;;5041298;28;20134;-68
2022/02/17 06:01:58;;;;;;;17.20;3.42;;;7.80;99.90;;;;;;5039479;28;20456;-68
2022/02/17 06:04:24;;;;;;;16.23;2.88;;;7.80;99.90;;;;;;5040885;28;20123;-68
2022/02/17 06:06:53;;;;;;;17.08;3.70;;;7.80;99.90;;;;;;5038664;28;20094;-68
2022/02/17 06:09:19;;;;;;;14.00;3.15;;;7.70;99.90;;;;;;5041894;28;20060;-67
2022/02/17 06:11:44;;;;;;;17.83;3.13;;;7.80;99.90;;;;;;5040861;28;20735;-67
2022/02/17 06:14:10;;;;;;;16.38;2.97;;;7.80;99.90;;;;;;5042580;28;20961;-68
2022/02/17 06:16:36;;;;;;;19.98;3.45;;;7.80;99.90;;;;;;5041826;28;20549;-68
2022/02/17 06:19:01;;;;;;;15.38;2.97;;;7.70;99.90;;;;;;5039721;28;20071;-67
2022/02/17 06:21:27;;;;;;;17.73;3.70;;;7.80;99.90;;;;;;5041730;28;20043;-68
2022/02/17 06:23:53;;;;;;;22.17;3.63;;;7.80;99.90;;;;;;5044511;28;20033;-68
2022/02/17 06:26:19;;;;;;;18.90;3.30;;;7.80;99.90;;;;;;5040795;28;20048;-68
2022/02/17 06:28:45;;;;;;;16.95;3.17;;;7.70;99.90;;;;;;5039296;28;20037;-68
2022/02/17 06:31:11;;;;;;;18.83;3.55;;;7.80;99.90;;;;;;5042802;28;20037;-68
2022/02/17 06:33:37;;;;;;;20.40;3.72;;;7.80;99.90;;;;;;5039543;28;20090;-68
2022/02/17 06:36:04;;;;;;;16.00;3.05;;;7.80;99.90;;;;;;5038815;28;20485;-68
2022/02/17 06:38:30;;;;;;;14.68;2.95;;;7.80;99.90;;;;;;5043615;28;20049;-68
2022/02/17 06:40:56;;;;;;;19.80;3.90;;;7.80;99.90;;;;;;5039574;28;20045;-68
2022/02/17 06:43:23;;;;;;;19.95;3.85;;;7.80;99.90;;;;;;5040561;28;20162;-68
2022/02/17 06:45:50;;;;;;;17.70;3.28;;;7.80;99.90;;;;;;5044048;28;20037;-68
2022/02/17 06:48:16;;;;;;;20.65;3.72;;;7.80;99.90;;;;;;5044977;28;20516;-68
2022/02/17 06:50:42;;;;;;;21.05;3.65;;;7.80;99.90;;;;;;5040673;28;20032;-69
2022/02/17 06:53:08;;;;;;;20.60;4.35;;;7.90;99.90;;;;;;5037929;28;20119;-68
2022/02/17 06:55:34;;;;;;;16.88;3.25;;;7.90;99.90;;;;;;5038518;28;20252;-69
2022/02/17 06:58:00;;;;;;;13.40;2.78;;;7.90;99.90;;;;;;5039673;28;20045;-69
2022/02/17 07:00:26;;;;;;;19.60;3.40;;;7.90;99.90;;;;;;5040455;28;20037;-69
2022/02/17 07:02:53;;;;;;;22.63;3.88;;;7.90;99.90;;;;;;5037121;28;20064;-69
2022/02/17 07:05:20;;;;;;;15.15;2.95;;;7.90;99.90;;;;;;5036651;28;20124;-70
2022/02/17 07:07:46;;;;;;;17.52;3.15;;;7.90;99.90;;;;;;5043111;28;20044;-69
2022/02/17 07:10:12;;;;;;;19.05;3.45;;;7.90;99.90;;;;;;5037674;28;20132;-69
2022/02/17 07:12:43;;;;;;;19.92;3.53;;;7.90;99.90;;;;;;5034487;28;20183;-71
2022/02/17 07:15:12;;;;;;;17.73;3.50;;;7.90;99.90;;;;;;5027557;28;20461;-68
2022/02/17 07:17:38;;;;;;;22.17;3.55;;;7.90;99.90;;;;;;5042776;28;20049;-68
2022/02/17 07:20:04;;;;;;;15.70;3.38;;;7.90;99.90;;;;;;5040317;28;20048;-68
2022/02/17 07:22:30;;;;;;;23.85;4.00;;;7.90;99.90;;;;;;5043273;28;20041;-68
2022/02/17 07:24:58;;;;;;;18.73;3.35;;;7.90;99.90;;;;;;5037633;28;20056;-69
2022/02/17 07:27:24;;;;;;;22.55;4.18;;;7.80;99.90;;;;;;5037570;28;20037;-69
2022/02/17 07:29:50;;;;;;;20.52;4.40;;;7.80;99.90;;;;;;5038935;28;20029;-69
2022/02/17 07:32:16;;;;;;;23.08;3.55;;;7.80;99.90;;;;;;5055261;28;20414;-69
2022/02/17 07:34:41;;;;;;;16.95;3.20;;;7.70;99.90;;;;;;5036177;28;20056;-69
2022/02/17 07:37:07;;;;;;;15.73;2.85;;;7.80;99.30;;;;;;5042759;28;20497;-69
2022/02/17 07:39:33;;;;;;;14.50;3.03;;;7.80;99.30;;;;;;5045309;28;20053;-68
2022/02/17 07:41:59;;;;;;;18.45;3.50;;;7.80;98.90;;;;;;5038264;28;20057;-68
2022/02/17 07:44:26;;;;;;;15.80;2.97;;;7.80;99.20;;;;;;5028273;28;20337;-68
2022/02/17 07:46:53;;;;;;;23.60;4.45;;;7.70;99.30;;;;;;5040184;28;20095;-68
2022/02/17 07:49:19;;;;;;;20.67;3.67;;;7.80;99.40;;;;;;5040960;28;20037;-68
2022/02/17 07:51:44;;;;;;;17.42;3.53;;;7.80;99.40;;;;;;5041873;28;20033;-68
2022/02/17 07:54:10;;;;;;;20.13;4.03;;;7.70;99.40;;;;;;5041484;28;20071;-68
2022/02/17 07:56:36;;;;;;;18.58;2.70;;;7.70;99.60;;;;;;5041272;28;20481;-68
2022/02/17 07:59:02;;;;;;;20.00;3.55;;;7.80;99.60;;;;;;5037454;28;20046;-68
2022/02/17 08:01:27;;;;;;;17.70;3.30;;;7.80;99.70;;;;;;5034737;28;20106;-68
2022/02/17 08:03:54;;;;;;;14.77;2.90;;;7.70;99.60;;;;;;5038380;28;20612;-68
2022/02/17 08:06:20;;;;;;;24.20;4.80;;;7.70;99.60;;;;;;5023898;28;20033;-68
2022/02/17 08:08:48;;;;;;;18.48;3.55;;;7.70;99.80;;;;;;5036100;28;20047;-69
2022/02/17 08:11:15;;;;;;;16.30;2.88;;;7.70;99.90;;;;;;5039206;28;20053;-68
2022/02/17 08:13:41;;;;;;;19.58;3.75;;;7.70;99.80;;;;;;5040089;28;20033;-69
2022/02/17 08:16:07;;;;;;;17.90;3.15;;;7.70;99.80;;;;;;5036962;28;20052;-69
2022/02/17 08:18:33;;;;;;;18.15;4.10;;;7.70;99.90;;;;;;5024929;28;20099;-68
2022/02/17 08:20:58;;;;;;;16.52;3.45;;;7.80;99.90;;;;;;5041114;28;20049;-68
2022/02/17 08:23:24;;;;;;;17.98;3.15;;;7.80;99.90;;;;;;5038647;28;20063;-69
2022/02/17 08:25:50;;;;;;;17.38;3.65;;;7.80;99.90;;;;;;5037615;28;20443;-68
2022/02/17 08:28:16;;;;;;;21.90;3.10;;;7.80;99.90;;;;;;5036295;28;20477;-69
2022/02/17 08:30:42;;;;;;;16.38;3.08;;;7.80;99.90;;;;;;5019976;28;20084;-69
2022/02/17 08:33:08;;;;;;;19.77;3.88;;;7.80;99.90;;;;;;5038076;28;20092;-69
2022/02/17 08:35:34;;;;;;;13.55;2.80;;;7.80;99.90;;;;;;5042330;28;20033;-69
2022/02/17 08:38:00;;;;;;;18.55;2.55;;;7.90;99.80;;;;;;5037702;28;20053;-69
2022/02/17 08:40:28;;;;;;;16.25;2.65;;;7.90;99.90;;;;;;5038859;28;20127;-68
2022/02/17 08:42:54;;;;;;;20.20;3.63;;;7.90;99.90;;;;;;5041746;28;20037;-69
2022/02/17 08:45:20;;;;;;;11.35;2.78;;;7.80;99.90;;;;;;5038343;28;20045;-68
2022/02/17 08:47:46;;;;;;;18.30;3.15;;;7.80;99.90;;;;;;5038300;28;20091;-68
2022/02/17 08:50:12;;;;;;;20.52;3.25;;;7.90;99.70;;;;;;5042091;28;20545;-68
2022/02/17 08:52:39;;;;;;;16.00;3.30;;;7.90;99.80;;;;;;5039943;28;20484;-68
2022/02/17 08:55:06;;;;;;;15.50;2.63;;;7.90;99.90;;;;;;5038240;28;20057;-68
2022/02/17 08:57:33;;;;;;;17.13;3.55;;;7.90;99.90;;;;;;5039401;28;20080;-68
2022/02/17 08:59:58;;;;;;;16.20;2.83;;;7.90;99.70;;;;;;5039048;28;20052;-68
2022/02/17 09:02:24;;;;;;;25.42;3.65;;;7.90;99.50;;;;;;5033977;28;20099;-68
2022/02/17 09:04:50;;;;;;;21.00;3.90;;;8.00;99.40;;;;;;5038401;28;20053;-68
2022/02/17 09:07:15;;;;;;;18.45;3.00;;;8.00;99.80;;;;;;5039279;28;20417;-68
2022/02/17 09:09:41;;;;;;;18.40;3.50;;;8.00;99.80;;;;;;5035082;28;20131;-68
2022/02/17 09:12:08;;;;;;;16.92;3.40;;;8.00;99.40;;;;;;5040441;28;20087;-68
2022/02/17 09:14:34;;;;;;;17.50;2.80;;;8.00;99.30;;;;;;5037998;28;20064;-68
2022/02/17 09:16:59;;;;;;;17.70;2.50;;;8.00;99.30;;;;;;5035971;28;20045;-68
2022/02/17 09:19:25;;;;;;;16.33;3.58;;;8.00;99.70;;;;;;5039552;28;20102;-67
2022/02/17 09:21:51;;;;;;;17.00;3.10;;;8.10;98.80;;;;;;5041217;28;20106;-68
2022/02/17 09:24:17;;;;;;;19.50;3.20;;;8.10;99.20;;;;;;5035355;28;20725;-68
2022/02/17 09:26:45;;;;;;;18.10;3.40;;;8.10;98.80;;;;;;5038789;28;20108;-68
2022/02/17 09:29:11;;;;;;;17.83;3.10;;;8.20;98.80;;;;;;5026809;28;20042;-68
2022/02/17 09:31:37;;;;;;;17.60;3.28;;;8.10;98.70;;;;;;5041273;28;20051;-68
2022/02/17 09:34:03;;;;;;;15.02;3.28;;;8.20;98.80;;;;;;5041562;28;20300;-68
2022/02/17 09:36:29;;;;;;;20.63;2.92;;;8.20;98.60;;;;;;5043189;28;20047;-68
2022/02/17 09:38:56;;;;;;;15.90;3.05;;;8.30;98.50;;;;;;5041556;28;20554;-68
2022/02/17 09:41:23;;;;;;;14.73;2.17;;;8.30;98.20;;;;;;5039805;28;20049;-68
2022/02/17 09:43:51;;;;;;;15.80;3.30;;;8.30;98.30;;;;;;5043167;28;20048;-68
2022/02/17 09:46:21;;;;;;;17.33;2.58;;;8.30;98.20;;;;;;5041822;28;20045;-68
2022/02/17 09:49:01;;;;;;;13.70;2.88;;;8.40;97.90;;;;;;5045243;28;20044;-68
2022/02/17 09:51:33;;;;;;;17.98;3.30;;;8.40;98.10;;;;;;5025802;28;20057;-67
2022/02/17 09:54:00;;;;;;;20.73;3.17;;;8.40;98.00;;;;;;5043885;28;20045;-68
2022/02/17 09:56:26;;;;;;;13.60;2.45;;;8.40;98.50;;;;;;5042725;28;20476;-67
2022/02/17 09:58:53;;;;;;;9.77;2.35;;;8.40;97.30;;;;;;5044945;28;20040;-67
2022/02/17 10:01:27;;;;;;;18.00;3.53;;;8.40;97.60;;;;;;5062498;28;20111;-67
2022/02/17 10:04:12;;;;;;;17.50;2.85;;;8.40;98.00;;;;;;5030587;28;20037;-67
2022/02/17 10:06:43;;;;;;;24.23;3.22;;;8.50;98.00;;;;;;5044123;28;20045;-67
2022/02/17 10:09:09;;;;;;;14.25;3.13;;;8.50;97.90;;;;;;5045487;28;20049;-68
2022/02/17 10:11:36;;;;;;;14.75;2.92;;;8.80;97.50;;;;;;5036974;28;20143;-68
2022/02/17 10:14:20;;;;;;;18.67;3.97;;;8.90;97.40;;;;;;5041676;28;20083;-68
2022/02/17 10:16:59;;;;;;;15.60;2.65;;;9.00;97.00;;;;;;5025993;28;20046;-68
2022/02/17 10:19:36;;;;;;;15.80;3.00;;;9.40;96.80;;;;;;5062714;28;20188;-68
2022/02/17 10:22:12;;;;;;;16.17;2.88;;;9.40;95.80;;;;;;5043258;28;20041;-68
2022/02/17 10:24:44;;;;;;;11.90;2.42;;;9.40;95.80;;;;;;5039523;28;20044;-68
2022/02/17 10:27:20;;;;;;;14.48;2.63;;;9.50;95.00;;;;;;5042126;28;23022;-67
2022/02/17 10:30:13;;;;;;;12.43;2.70;;;9.70;95.10;;;;;;5040875;28;20546;-69
2022/02/17 10:32:56;;;;;;;16.00;3.00;;;9.90;95.10;;;;;;5034618;28;20071;-69
2022/02/17 10:35:23;;;;;;;13.20;2.13;;;10.10;94.50;;;;;;5041166;28;20513;-68
2022/02/17 10:37:51;;;;;;;16.85;2.75;;;10.00;93.70;;;;;;5040711;28;20049;-68
2022/02/17 10:40:20;;;;;;;17.77;3.08;;;9.80;94.00;;;;;;5040884;28;20075;-68
2022/02/17 10:42:59;;;;;;;19.70;3.25;;;9.80;94.80;;;;;;5036218;28;20045;-68
2022/02/17 10:45:25;;;;;;;16.10;2.65;;;10.40;94.10;;;;;;5042400;28;20037;-68
2022/02/17 10:47:50;;;;;;;13.73;2.45;;;10.60;93.10;;;;;;5046413;28;20045;-68
2022/02/17 10:50:20;;;;;;;16.30;2.33;;;10.90;93.50;;;;;;5035916;28;20743;-68
2022/02/17 10:52:46;;;;;;;16.25;2.85;;;11.00;92.40;;;;;;5038835;28;20136;-68
2022/02/17 10:55:20;;;;;;;19.30;3.25;;;11.40;92.00;;;;;;5042143;28;20040;-68
2022/02/17 10:57:47;;;;;;;15.18;2.85;;;12.20;91.00;;;;;;5038408;28;20037;-68
2022/02/17 11:00:23;;;;;;;12.85;2.78;;;11.90;90.70;;;;;;5043148;28;20048;-68
2022/02/17 11:02:50;;;;;;;11.68;2.25;;;11.90;90.20;;;;;;5040400;28;20060;-67
2022/02/17 11:05:17;;;;;;;14.55;2.63;;;11.80;89.10;;;;;;5037945;28;20110;-68
2022/02/17 11:07:45;;;;;;;15.38;2.58;;;11.70;88.60;;;;;;5042804;28;20048;-68
2022/02/17 11:10:12;;;;;;;14.00;2.60;;;11.80;87.90;;;;;;5037407;28;20049;-69
2022/02/17 11:12:40;;;;;;;15.57;2.88;;;11.90;88.90;;;;;;5037356;28;20102;-68
2022/02/17 11:15:07;;;;;;;10.27;2.10;;;12.40;87.50;;;;;;5041829;28;20076;-68
2022/02/17 11:17:40;;;;;;;13.32;2.13;;;12.10;85.90;;;;;;5042204;28;20056;-69
2022/02/17 11:20:17;;;;;;;12.32;2.28;;;11.70;83.60;;;;;;5024238;28;20216;-67
2022/02/17 11:22:44;;;;;;;9.68;2.17;;;11.40;84.60;;;;;;5043687;28;20048;-67
2022/02/17 11:25:11;;;;;;;12.75;2.35;;;11.80;86.20;;;;;;5040820;28;20045;-69
2022/02/17 11:28:00;;;;;;;15.88;2.35;;;12.20;85.20;;;;;;5039964;28;20398;-67
2022/02/17 11:30:31;;;;;;;11.38;1.73;;;12.70;82.10;;;;;;5042866;28;20037;-68
2022/02/17 11:33:23;;;;;;;12.93;1.90;;;12.70;79.60;;;;;;5035153;28;20387;-69
2022/02/17 11:35:50;;;;;;;13.50;2.35;;;13.00;79.80;;;;;;5041357;28;20183;-69
2022/02/17 11:38:38;;;;;;;11.93;2.30;;;12.90;78.00;;;;;;5041198;28;20167;-68
2022/02/17 11:41:15;;;;;;;11.52;2.40;;;13.00;76.20;;;;;;5039944;28;20086;-68
2022/02/17 11:43:43;;;;;;;9.90;2.50;;;12.40;77.20;;;;;;5039261;28;20045;-68
2022/02/17 11:46:10;;;;;;;15.18;2.60;;;12.40;79.50;;;;;;5040099;28;20041;-68
2022/02/17 11:48:56;;;;;;;9.82;2.03;;;12.60;79.10;;;;;;5035471;28;20053;-69
2022/02/17 11:51:24;;;;;;;16.77;2.53;;;12.50;78.10;;;;;;5035175;28;20055;-67
2022/02/17 11:54:15;;;;;;;12.90;2.15;;;12.70;76.80;;;;;;5042691;28;20045;-68
2022/02/17 11:56:50;;;;;;;10.93;2.30;;;12.30;76.80;;;;;;5039921;28;20036;-68
2022/02/17 11:59:26;;;;;;;9.80;2.30;;;11.80;77.90;;;;;;5039329;28;20179;-66
2022/02/17 12:01:53;;;;;;;12.10;2.00;;;11.20;80.50;;;;;;5036253;28;20044;-67
2022/02/17 12:04:23;;;;;;;11.18;2.00;;;11.20;80.30;;;;;;5039480;28;20140;-68
2022/02/17 12:06:51;;;;;;;10.43;1.65;;;11.40;80.40;;;;;;5037523;28;20061;-67
2022/02/17 12:09:29;;;;;;;14.07;2.55;;;10.90;81.80;;;;;;5038997;28;20060;-66
2022/02/17 12:12:17;;;;;;;9.73;1.92;;;10.60;83.20;;;;;;5040264;28;20457;-67
2022/02/17 12:14:50;;;;;;;11.57;2.08;;;10.30;84.40;;;;;;5037863;28;20076;-66
2022/02/17 12:17:24;;;;;;;11.77;2.25;;;10.00;85.00;;;;;;5035504;28;20041;-68
2022/02/17 12:19:50;;;;;;;9.48;1.80;;;9.90;84.80;;;;;;5038574;28;20039;-68
2022/02/17 12:22:16;;;;;;;9.48;2.10;;;9.70;85.20;;;;;;5040208;28;20053;-68
2022/02/17 12:24:46;;;;;;;13.10;1.92;;;9.50;86.30;;;;;;5040664;28;20037;-67
2022/02/17 12:27:20;;;;;;;9.18;1.88;;;9.40;87.20;;;;;;5035836;28;20043;-67
2022/02/17 12:29:46;;;;;;;;;;;9.50;87.30;;;;;;5041085;28;20123;-67
2022/02/17 12:32:19;;;;;;;12.05;2.05;;;9.40;87.30;;;;;;5042854;28;20011;-67
2022/02/17 12:34:46;;;;;;;12.40;2.03;;;9.40;88.00;;;;;;5039484;28;20498;-67
2022/02/17 12:37:19;;;;;;;8.07;1.30;;;9.40;89.00;;;;;;5035307;28;20465;-68
2022/02/17 12:39:46;;;;;;;13.48;2.40;;;9.40;87.70;;;;;;5040642;28;20079;-68
2022/02/17 12:42:13;;;;;;;10.07;1.65;;;9.30;87.40;;;;;;5035595;28;20129;-66
2022/02/17 12:44:41;;;;;;;12.05;2.28;;;9.30;87.70;;;;;;5038418;28;20563;-68
2022/02/17 12:47:09;;;;;;;9.15;1.88;;;9.30;88.60;;;;;;5042943;28;20075;-69
2022/02/17 12:49:36;;;;;;;10.05;1.85;;;9.30;88.30;;;;;;5035569;28;20069;-69